createdAt,value
2019-02-19T00:01:36.965Z,6.90
2019-02-19T00:04:06.253Z,6.90
2019-02-19T00:06:35.477Z,6.90
2019-02-19T00:09:05.106Z,6.90
2019-02-19T00:11:34.221Z,6.80
2019-02-19T00:14:03.268Z,6.90
2019-02-19T00:16:32.315Z,6.90
2019-02-19T00:19:01.089Z,6.90
2019-02-19T00:21:29.975Z,6.90
2019-02-19T00:23:59.193Z,6.90
2019-02-19T00:26:28.172Z,6.90
2019-02-19T00:28:57.276Z,6.90
2019-02-19T00:31:26.045Z,6.90
2019-02-19T00:33:55.503Z,6.90
2019-02-19T00:36:24.634Z,6.90
2019-02-19T00:38:54.296Z,6.90
2019-02-19T00:41:23.330Z,6.90
2019-02-19T00:43:52.146Z,6.90
2019-02-19T00:46:20.912Z,6.90
2019-02-19T00:48:49.732Z,7.00
2019-02-19T00:51:18.772Z,7.00
2019-02-19T00:53:47.850Z,7.00
2019-02-19T00:56:16.650Z,7.00
2019-02-19T00:58:46.118Z,7.00
2019-02-19T01:01:14.909Z,7.00
2019-02-19T01:03:44.060Z,7.00
2019-02-19T01:06:13.020Z,7.00
2019-02-19T01:08:42.169Z,7.00
2019-02-19T01:11:11.052Z,7.00
2019-02-19T01:13:40.067Z,6.90
2019-02-19T01:16:10.654Z,7.00
2019-02-19T01:18:39.879Z,7.00
2019-02-19T01:21:08.697Z,7.00
2019-02-19T01:23:37.467Z,7.00
2019-02-19T01:26:06.512Z,7.10
2019-02-19T01:28:35.607Z,7.10
2019-02-19T01:31:05.322Z,7.10
2019-02-19T01:33:34.114Z,7.10
2019-02-19T01:36:02.942Z,7.10
2019-02-19T01:38:31.997Z,7.10
2019-02-19T01:41:01.159Z,7.10
2019-02-19T01:43:29.989Z,7.00
2019-02-19T01:45:58.788Z,7.10
2019-02-19T01:48:27.849Z,7.10
2019-02-19T01:50:56.687Z,7.10
2019-02-19T01:53:25.467Z,7.10
2019-02-19T01:55:54.852Z,7.10
2019-02-19T01:58:23.797Z,7.10
2019-02-19T02:00:52.902Z,7.10
2019-02-19T02:03:21.710Z,7.10
2019-02-19T02:05:50.506Z,7.10
2019-02-19T02:08:19.382Z,7.10
2019-02-19T02:10:48.456Z,7.10
2019-02-19T02:13:17.242Z,7.10
2019-02-19T02:15:46.061Z,7.10
2019-02-19T02:18:15.133Z,7.10
2019-02-19T02:20:43.953Z,7.10
2019-02-19T02:23:13.265Z,7.10
2019-02-19T02:25:42.139Z,7.10
2019-02-19T02:28:10.943Z,7.10
2019-02-19T02:30:40.120Z,7.00
2019-02-19T02:33:08.996Z,7.10
2019-02-19T02:35:38.193Z,7.00
2019-02-19T02:38:07.016Z,7.00
2019-02-19T02:40:36.120Z,7.00
2019-02-19T02:43:05.073Z,7.00
2019-02-19T02:45:33.839Z,7.10
2019-02-19T02:48:02.820Z,7.10
2019-02-19T02:50:32.053Z,7.10
2019-02-19T02:53:00.894Z,7.10
2019-02-19T02:55:30.085Z,7.10
2019-02-19T02:57:59.136Z,7.10
2019-02-19T03:00:27.971Z,7.10
2019-02-19T03:02:57.330Z,7.20
2019-02-19T03:05:26.552Z,7.20
2019-02-19T03:07:58.098Z,7.20
2019-02-19T03:10:26.968Z,7.20
2019-02-19T03:12:55.921Z,7.20
2019-02-19T03:15:25.285Z,7.20
2019-02-19T03:17:54.253Z,7.20
2019-02-19T03:20:23.088Z,7.30
2019-02-19T03:22:52.194Z,7.30
2019-02-19T03:25:21.509Z,7.30
2019-02-19T03:27:50.971Z,7.30
2019-02-19T03:30:19.818Z,7.30
2019-02-19T03:32:48.958Z,7.40
2019-02-19T03:35:18.226Z,7.40
2019-02-19T03:37:47.253Z,7.40
2019-02-19T03:40:16.210Z,7.40
2019-02-19T03:42:45.643Z,7.40
2019-02-19T03:45:14.704Z,7.40
2019-02-19T03:47:43.737Z,7.40
2019-02-19T03:50:14.042Z,7.40
2019-02-19T03:52:43.348Z,7.30
2019-02-19T03:55:12.137Z,7.30
2019-02-19T03:57:41.070Z,7.30
2019-02-19T04:00:10.159Z,7.30
2019-02-19T04:02:39.047Z,7.30
2019-02-19T04:05:07.811Z,7.30
2019-02-19T04:07:36.944Z,7.30
2019-02-19T04:10:05.954Z,7.30
2019-02-19T04:12:34.783Z,7.30
2019-02-19T04:15:03.997Z,7.30
2019-02-19T04:17:32.832Z,7.20
2019-02-19T04:20:01.830Z,7.20
2019-02-19T04:22:30.652Z,7.30
2019-02-19T04:24:59.671Z,7.20
2019-02-19T04:27:28.464Z,7.20
2019-02-19T04:29:57.795Z,7.20
2019-02-19T04:32:26.872Z,7.20
2019-02-19T04:34:56.006Z,7.20
2019-02-19T04:37:24.770Z,7.20
2019-02-19T04:39:53.832Z,7.20
2019-02-19T04:42:22.623Z,7.20
2019-02-19T04:44:52.317Z,7.20
2019-02-19T04:47:21.410Z,7.20
2019-02-19T04:49:53.302Z,7.10
2019-02-19T04:52:22.988Z,7.10
2019-02-19T04:54:52.133Z,7.10
2019-02-19T04:57:21.929Z,7.10
2019-02-19T04:59:50.819Z,7.00
2019-02-19T05:02:19.717Z,7.00
2019-02-19T05:04:48.802Z,7.00
2019-02-19T05:07:17.611Z,7.00
2019-02-19T05:09:46.422Z,6.90
2019-02-19T05:12:16.080Z,6.90
2019-02-19T05:14:48.300Z,6.80
2019-02-19T05:17:17.857Z,6.80
2019-02-19T05:19:46.705Z,6.80
2019-02-19T05:22:15.694Z,6.70
2019-02-19T05:24:44.961Z,6.80
2019-02-19T05:27:14.298Z,6.80
2019-02-19T05:29:43.338Z,6.70
2019-02-19T05:32:12.428Z,6.70
2019-02-19T05:34:41.350Z,6.70
2019-02-19T05:37:10.580Z,6.70
2019-02-19T05:39:39.915Z,6.70
2019-02-19T05:42:08.820Z,6.70
2019-02-19T05:44:38.280Z,6.70
2019-02-19T05:47:07.485Z,6.70
2019-02-19T05:49:36.596Z,6.70
2019-02-19T05:52:05.733Z,6.70
2019-02-19T05:54:34.794Z,6.70
2019-02-19T05:57:03.723Z,6.60
2019-02-19T05:59:33.068Z,6.60
2019-02-19T06:02:01.977Z,6.60
2019-02-19T06:04:31.057Z,6.60
2019-02-19T06:06:59.944Z,6.60
2019-02-19T06:09:29.162Z,6.60
2019-02-19T06:11:57.940Z,6.60
2019-02-19T06:14:27.064Z,6.60
2019-02-19T06:16:58.421Z,6.60
2019-02-19T06:19:26.552Z,6.60
2019-02-19T06:21:55.434Z,6.60
2019-02-19T06:24:24.205Z,6.70
2019-02-19T06:26:53.870Z,6.60
2019-02-19T06:29:22.759Z,6.70
2019-02-19T06:31:51.558Z,6.70
2019-02-19T06:34:20.674Z,6.70
2019-02-19T06:36:49.655Z,6.70
2019-02-19T06:39:19.217Z,6.70
2019-02-19T06:41:48.230Z,6.80
2019-02-19T06:44:17.246Z,6.80
2019-02-19T06:46:46.202Z,6.80
2019-02-19T06:49:15.371Z,6.80
2019-02-19T06:51:44.560Z,6.80
2019-02-19T06:54:13.867Z,6.80
2019-02-19T06:56:42.867Z,6.80
2019-02-19T06:59:11.643Z,6.80
2019-02-19T07:02:01.780Z,6.90
2019-02-19T07:04:34.625Z,6.80
2019-02-19T07:07:03.449Z,6.90
2019-02-19T07:09:32.347Z,6.90
2019-02-19T07:12:01.420Z,6.90
2019-02-19T07:14:30.383Z,6.90
2019-02-19T07:16:59.457Z,6.90
2019-02-19T07:19:28.669Z,6.90
2019-02-19T07:21:57.827Z,7.00
2019-02-19T07:24:26.986Z,7.00
2019-02-19T07:26:55.962Z,7.00
2019-02-19T07:29:24.903Z,7.00
2019-02-19T07:31:53.762Z,7.00
2019-02-19T07:34:22.602Z,7.10
2019-02-19T07:36:51.724Z,7.10
2019-02-19T07:39:20.660Z,7.10
2019-02-19T07:41:49.798Z,7.10
2019-02-19T07:44:18.718Z,7.20
2019-02-19T07:46:47.986Z,7.20
2019-02-19T07:49:17.129Z,7.20
2019-02-19T07:51:46.254Z,7.30
2019-02-19T07:54:17.374Z,7.30
2019-02-19T07:56:54.305Z,7.40
2019-02-19T07:59:25.056Z,7.40
2019-02-19T08:01:56.694Z,7.40
2019-02-19T08:04:28.506Z,7.50
2019-02-19T08:07:02.571Z,7.50
2019-02-19T08:09:31.471Z,7.60
2019-02-19T08:12:00.377Z,7.60
2019-02-19T08:14:37.024Z,7.60
2019-02-19T08:17:09.222Z,7.60
2019-02-19T08:19:39.503Z,7.60
2019-02-19T08:22:08.931Z,7.60
2019-02-19T08:24:39.011Z,7.70
2019-02-19T08:27:10.131Z,7.70
2019-02-19T08:29:40.092Z,7.70
2019-02-19T08:32:12.457Z,7.80
2019-02-19T08:34:41.299Z,7.80
2019-02-19T08:37:13.202Z,7.90
2019-02-19T08:39:43.231Z,7.80
2019-02-19T08:42:12.295Z,7.90
2019-02-19T08:44:42.014Z,7.90
2019-02-19T08:47:12.927Z,7.90
2019-02-19T08:49:41.939Z,7.90
2019-02-19T08:52:10.943Z,7.90
2019-02-19T08:54:40.130Z,7.90
2019-02-19T08:57:08.982Z,7.90
2019-02-19T08:59:37.848Z,7.90
2019-02-19T09:02:06.685Z,7.90
2019-02-19T09:04:35.575Z,7.90
2019-02-19T09:07:04.911Z,7.90
2019-02-19T09:09:33.722Z,7.80
2019-02-19T09:12:02.511Z,7.80
2019-02-19T09:14:31.441Z,7.80
2019-02-19T09:17:00.296Z,7.70
2019-02-19T09:19:29.148Z,7.70
2019-02-19T09:21:58.346Z,7.70
2019-02-19T09:24:27.155Z,7.80
2019-02-19T09:26:56.307Z,7.90
2019-02-19T09:29:25.118Z,8.00
2019-02-19T09:31:53.892Z,8.10
2019-02-19T09:34:22.653Z,8.10
2019-02-19T09:36:51.532Z,8.20
2019-02-19T09:39:20.632Z,8.20
2019-02-19T09:41:51.400Z,8.30
2019-02-19T09:44:23.692Z,8.30
2019-02-19T09:46:53.155Z,8.30
2019-02-19T09:49:22.202Z,8.30
2019-02-19T09:51:51.092Z,8.40
2019-02-19T09:54:20.436Z,8.40
2019-02-19T09:56:49.275Z,8.40
2019-02-19T09:59:18.380Z,8.50
2019-02-19T10:01:47.162Z,8.60
2019-02-19T10:04:16.267Z,8.60
2019-02-19T10:06:45.120Z,8.70
2019-02-19T10:09:14.204Z,8.70
2019-02-19T10:11:43.053Z,8.70
2019-02-19T10:14:12.168Z,8.80
2019-02-19T10:16:41.928Z,8.70
2019-02-19T10:19:10.951Z,8.80
2019-02-19T10:21:39.992Z,8.80
2019-02-19T10:24:08.800Z,8.80
2019-02-19T10:26:37.615Z,8.80
2019-02-19T10:29:06.689Z,8.80
2019-02-19T10:31:35.844Z,8.80
2019-02-19T10:34:04.914Z,8.80
2019-02-19T10:36:33.777Z,8.80
2019-02-19T10:39:03.946Z,8.80
2019-02-19T10:41:32.743Z,8.80
2019-02-19T10:44:01.565Z,8.90
2019-02-19T10:46:30.695Z,8.90
2019-02-19T10:48:59.517Z,9.00
2019-02-19T10:51:28.538Z,9.00
2019-02-19T10:53:57.657Z,9.00
2019-02-19T10:56:26.494Z,9.00
2019-02-19T10:58:55.509Z,9.00
2019-02-19T11:01:24.734Z,8.90
2019-02-19T11:03:53.592Z,9.00
2019-02-19T11:06:22.492Z,9.00
2019-02-19T11:08:51.863Z,9.10
2019-02-19T11:11:20.909Z,9.20
2019-02-19T11:13:49.991Z,9.20
2019-02-19T11:16:19.036Z,9.30
2019-02-19T11:18:48.730Z,9.40
2019-02-19T11:21:19.846Z,9.40
2019-02-19T11:23:48.734Z,9.50
2019-02-19T11:26:17.534Z,9.50
2019-02-19T11:28:46.747Z,9.60
2019-02-19T11:31:15.848Z,9.60
2019-02-19T11:33:44.837Z,9.60
2019-02-19T11:36:13.805Z,9.60
2019-02-19T11:38:43.123Z,9.50
2019-02-19T11:41:12.257Z,9.50
2019-02-19T11:43:41.506Z,9.50
2019-02-19T11:46:11.400Z,9.50
2019-02-19T11:48:40.139Z,9.50
2019-02-19T11:51:09.032Z,9.50
2019-02-19T11:53:38.365Z,9.60
2019-02-19T11:56:07.459Z,9.60
2019-02-19T11:58:36.608Z,9.60
2019-02-19T12:01:06.086Z,9.60
2019-02-19T12:03:34.956Z,9.60
2019-02-19T12:06:06.022Z,9.50
2019-02-19T12:08:38.991Z,9.50
2019-02-19T12:11:05.924Z,9.40
2019-02-19T12:13:34.875Z,9.30
2019-02-19T12:16:03.795Z,9.20
2019-02-19T12:18:32.862Z,9.20
2019-02-19T12:21:01.763Z,9.10
2019-02-19T12:23:31.669Z,9.10
2019-02-19T12:26:00.763Z,9.10
2019-02-19T12:28:29.561Z,9.10
2019-02-19T12:30:58.368Z,9.00
2019-02-19T12:33:27.215Z,9.00
2019-02-19T12:35:56.010Z,9.00
2019-02-19T12:38:25.072Z,9.00
2019-02-19T12:40:55.636Z,9.00
2019-02-19T12:43:24.720Z,9.00
2019-02-19T12:45:53.789Z,9.00
2019-02-19T12:48:22.686Z,9.00
2019-02-19T12:50:51.871Z,9.10
2019-02-19T12:53:20.886Z,9.10
2019-02-19T12:55:51.383Z,9.10
2019-02-19T12:58:20.179Z,9.10
2019-02-19T13:00:49.109Z,9.10
2019-02-19T13:03:18.704Z,9.10
2019-02-19T13:05:47.870Z,9.20
2019-02-19T13:08:17.090Z,9.20
2019-02-19T13:10:47.987Z,9.20
2019-02-19T13:13:20.275Z,9.20
2019-02-19T13:15:51.822Z,9.10
2019-02-19T13:18:21.592Z,9.10
2019-02-19T13:20:50.804Z,9.10
2019-02-19T13:23:19.587Z,9.10
2019-02-19T13:25:48.387Z,9.10
2019-02-19T13:28:17.722Z,9.10
2019-02-19T13:30:46.626Z,9.10
2019-02-19T13:33:15.610Z,9.00
2019-02-19T13:35:44.941Z,9.00
2019-02-19T13:38:14.321Z,8.90
2019-02-19T13:40:43.651Z,8.80
2019-02-19T13:43:12.755Z,8.80
2019-02-19T13:45:42.203Z,8.80
2019-02-19T13:48:11.161Z,8.70
2019-02-19T13:50:40.029Z,8.60
2019-02-19T13:53:19.608Z,8.60
2019-02-19T13:55:51.297Z,8.60
2019-02-19T13:58:20.696Z,8.50
2019-02-19T14:00:50.152Z,8.50
2019-02-19T14:03:19.403Z,8.50
2019-02-19T14:05:48.693Z,8.50
2019-02-19T14:08:18.750Z,8.60
2019-02-19T14:10:47.618Z,8.60
2019-02-19T14:13:16.968Z,8.50
2019-02-19T14:15:55.627Z,8.50
2019-02-19T14:18:46.303Z,8.60
2019-02-19T14:21:32.575Z,8.60
2019-02-19T14:24:29.636Z,8.50
2019-02-19T14:27:23.663Z,8.50
2019-02-19T14:30:12.016Z,8.60
2019-02-19T14:32:53.762Z,8.60
2019-02-19T14:35:41.619Z,8.60
2019-02-19T14:38:24.435Z,8.60
2019-02-19T14:41:11.260Z,8.60
2019-02-19T14:43:57.932Z,8.60
2019-02-19T14:46:51.914Z,8.60
2019-02-19T14:49:47.013Z,8.70
2019-02-19T14:52:28.826Z,8.70
2019-02-19T14:55:16.728Z,8.70
2019-02-19T14:58:16.770Z,8.80
2019-02-19T15:01:04.653Z,8.90
2019-02-19T15:04:04.429Z,8.90
2019-02-19T15:06:52.359Z,9.00
2019-02-19T15:09:32.080Z,9.10
2019-02-19T15:12:14.237Z,9.10
2019-02-19T15:14:54.171Z,9.10
2019-02-19T15:17:35.707Z,9.00
2019-02-19T15:20:12.908Z,9.00
2019-02-19T15:23:03.656Z,9.00
2019-02-19T15:25:54.395Z,9.00
2019-02-19T15:28:57.449Z,8.90
2019-02-19T15:31:55.893Z,8.80
2019-02-19T15:34:48.530Z,8.70
2019-02-19T15:37:55.333Z,8.60
2019-02-19T15:40:50.068Z,8.50
2019-02-19T15:43:36.696Z,8.40
2019-02-19T15:46:42.582Z,8.30
2019-02-19T15:51:53.336Z,8.20
2019-02-19T15:54:41.943Z,8.30
2019-02-19T15:57:17.568Z,8.20
2019-02-19T16:00:04.154Z,8.30
2019-02-19T16:02:38.818Z,8.20
2019-02-19T16:05:38.663Z,8.20
2019-02-19T16:08:33.914Z,8.10
2019-02-19T16:11:22.162Z,8.10
2019-02-19T16:14:16.487Z,8.00
2019-02-19T16:16:57.934Z,8.00
2019-02-19T16:19:32.979Z,8.00
2019-02-19T16:22:11.239Z,8.00
2019-02-19T16:24:53.470Z,7.90
2019-02-19T16:27:37.434Z,7.90
2019-02-19T16:33:06.906Z,7.90
2019-02-19T16:45:18.090Z,7.90
2019-02-19T16:48:12.245Z,7.90
2019-02-19T16:51:06.289Z,7.90
2019-02-19T16:53:48.735Z,7.90
2019-02-19T16:56:31.196Z,7.90
2019-02-19T16:59:22.530Z,7.90
2019-02-19T17:02:06.959Z,7.90
2019-02-19T17:04:55.043Z,7.90
2019-02-19T17:07:45.999Z,7.90
2019-02-19T17:10:22.288Z,7.90
2019-02-19T17:13:13.171Z,7.90
2019-02-19T17:16:01.350Z,7.90
2019-02-19T17:18:41.893Z,7.80
2019-02-19T17:21:35.604Z,7.80
2019-02-19T17:24:13.263Z,7.80
2019-02-19T17:26:51.971Z,7.80
2019-02-19T17:29:27.442Z,7.80
2019-02-19T17:32:21.759Z,7.80
2019-02-19T17:35:15.393Z,7.80
2019-02-19T17:37:53.162Z,7.80
2019-02-19T17:40:51.239Z,7.80
2019-02-19T17:43:26.775Z,7.80
2019-02-19T17:46:13.228Z,7.80
2019-02-19T17:49:08.080Z,7.80
2019-02-19T17:51:55.940Z,7.80
2019-02-19T17:54:47.773Z,7.80
2019-02-19T17:57:33.360Z,7.80
2019-02-19T18:00:19.845Z,7.80
2019-02-19T18:03:06.567Z,7.80
2019-02-19T18:06:00.949Z,7.80
2019-02-19T18:08:47.714Z,7.80
2019-02-19T18:11:27.893Z,7.80
2019-02-19T18:14:12.418Z,7.80
2019-02-19T18:17:00.573Z,7.80
2019-02-19T18:19:29.909Z,7.80
2019-02-19T18:21:58.664Z,7.80
2019-02-19T18:24:27.485Z,7.80
2019-02-19T18:26:56.322Z,7.80
2019-02-19T18:29:25.067Z,7.90
2019-02-19T18:31:53.832Z,7.90
2019-02-19T18:34:22.613Z,7.80
2019-02-19T18:36:51.446Z,7.80
2019-02-19T18:39:20.347Z,7.80
2019-02-19T18:41:49.086Z,7.80
2019-02-19T18:44:18.386Z,7.80
2019-02-19T18:46:47.509Z,7.80
2019-02-19T18:49:16.850Z,7.80
2019-02-19T18:51:45.815Z,7.80
2019-02-19T18:54:14.593Z,7.80
2019-02-19T18:56:43.823Z,7.80
2019-02-19T18:59:12.672Z,7.80
2019-02-19T19:01:41.446Z,7.80
2019-02-19T19:04:10.613Z,7.80
2019-02-19T19:06:39.592Z,7.80
2019-02-19T19:09:08.370Z,7.80
2019-02-19T19:11:37.248Z,7.80
2019-02-19T19:14:06.096Z,7.80
2019-02-19T19:16:34.884Z,7.80
2019-02-19T19:19:03.891Z,7.80
2019-02-19T19:21:32.902Z,7.80
2019-02-19T19:24:01.971Z,7.80
2019-02-19T19:26:31.180Z,7.80
2019-02-19T19:28:59.905Z,7.80
2019-02-19T19:31:33.330Z,7.80
2019-02-19T19:33:59.420Z,7.80
2019-02-19T19:36:28.730Z,7.70
2019-02-19T19:38:57.476Z,7.70
2019-02-19T19:41:26.250Z,7.70
2019-02-19T19:43:55.268Z,7.70
2019-02-19T19:46:24.139Z,7.70
2019-02-19T19:48:52.921Z,7.70
2019-02-19T19:51:21.656Z,7.70
2019-02-19T19:53:50.451Z,7.70
2019-02-19T19:56:19.798Z,7.70
2019-02-19T19:58:48.547Z,7.80
2019-02-19T20:01:17.642Z,7.80
2019-02-19T20:03:46.673Z,7.70
2019-02-19T20:06:15.512Z,7.70
2019-02-19T20:08:44.542Z,7.70
2019-02-19T20:11:13.889Z,7.70
2019-02-19T20:13:42.716Z,7.70
2019-02-19T20:16:11.742Z,7.70
2019-02-19T20:18:40.837Z,7.60
2019-02-19T20:21:09.652Z,7.60
2019-02-19T20:23:38.427Z,7.70
2019-02-19T20:26:07.200Z,7.60
2019-02-19T20:28:36.719Z,7.60
2019-02-19T20:31:05.541Z,7.60
2019-02-19T20:33:34.317Z,7.60
2019-02-19T20:36:03.133Z,7.70
2019-02-19T20:38:32.166Z,7.70
2019-02-19T20:41:01.372Z,7.60
2019-02-19T20:43:30.234Z,7.70
2019-02-19T20:45:59.530Z,7.70
2019-02-19T20:48:28.821Z,7.70
2019-02-19T20:50:57.902Z,7.70
2019-02-19T20:53:26.641Z,7.70
2019-02-19T20:55:55.698Z,7.60
2019-02-19T20:58:24.456Z,7.60
2019-02-19T21:00:53.674Z,7.70
2019-02-19T21:03:22.432Z,7.60
2019-02-19T21:05:52.011Z,7.60
2019-02-19T21:08:21.043Z,7.70
2019-02-19T21:10:49.906Z,7.60
2019-02-19T21:13:18.970Z,7.60
2019-02-19T21:15:47.827Z,7.60
2019-02-19T21:18:16.571Z,7.60
2019-02-19T21:20:45.597Z,7.60
2019-02-19T21:23:14.685Z,7.60
2019-02-19T21:25:43.412Z,7.60
2019-02-19T21:28:12.137Z,7.60
2019-02-19T21:30:41.441Z,7.60
2019-02-19T21:33:10.187Z,7.60
2019-02-19T21:35:39.551Z,7.60
2019-02-19T21:38:08.294Z,7.50
2019-02-19T21:40:37.069Z,7.50
2019-02-19T21:43:06.069Z,7.50
2019-02-19T21:45:34.821Z,7.50
2019-02-19T21:48:03.679Z,7.50
2019-02-19T21:50:35.907Z,7.60
2019-02-19T21:53:05.065Z,7.60
2019-02-19T21:55:33.856Z,7.50
2019-02-19T21:58:02.626Z,7.50
2019-02-19T22:00:31.410Z,7.50
2019-02-19T22:03:00.789Z,7.50
2019-02-19T22:05:29.572Z,7.50
2019-02-19T22:07:58.363Z,7.50
2019-02-19T22:10:27.129Z,7.50
2019-02-19T22:12:55.919Z,7.50
2019-02-19T22:15:24.951Z,7.50
2019-02-19T22:17:54.598Z,7.50
2019-02-19T22:20:34.376Z,7.50
2019-02-19T22:23:03.504Z,7.50
2019-02-19T22:25:32.751Z,7.50
2019-02-19T22:28:01.596Z,7.50
2019-02-19T22:30:30.393Z,7.50
2019-02-19T22:32:59.306Z,7.50
2019-02-19T22:35:28.874Z,7.50
2019-02-19T22:37:58.592Z,7.50
2019-02-19T22:40:27.456Z,7.50
2019-02-19T22:42:56.354Z,7.50
2019-02-19T22:45:25.370Z,7.50
2019-02-19T22:47:54.238Z,7.50
2019-02-19T22:50:23.087Z,7.50
2019-02-19T22:52:52.030Z,7.50
2019-02-19T22:55:30.465Z,7.50
2019-02-19T22:57:59.408Z,7.50
2019-02-19T23:00:55.147Z,7.50
2019-02-19T23:03:26.114Z,7.50
2019-02-19T23:05:54.890Z,7.50
2019-02-19T23:08:23.765Z,7.50
2019-02-19T23:10:52.590Z,7.50
2019-02-19T23:13:22.046Z,7.50
2019-02-19T23:15:51.138Z,7.50
2019-02-19T23:18:20.226Z,7.50
2019-02-19T23:20:49.253Z,7.50
2019-02-19T23:23:18.158Z,7.50
2019-02-19T23:25:47.733Z,7.50
2019-02-19T23:28:16.682Z,7.50
2019-02-19T23:30:45.538Z,7.50
2019-02-19T23:33:16.036Z,7.50
2019-02-19T23:36:09.776Z,7.50
2019-02-19T23:38:38.752Z,7.50
2019-02-19T23:41:07.512Z,7.50
2019-02-19T23:43:36.330Z,7.50
2019-02-19T23:46:07.409Z,7.50
2019-02-19T23:48:36.314Z,7.50
2019-02-19T23:51:05.410Z,7.50
2019-02-19T23:53:34.756Z,7.50
2019-02-19T23:56:04.212Z,7.50
2019-02-19T23:58:33.325Z,7.50
